createdAt,value
2024-01-25T00:01:56.223Z,101336.56
2024-01-25T00:04:23.757Z,101334.31
2024-01-25T00:06:50.667Z,101324.94
2024-01-25T00:09:18.198Z,101331.31
2024-01-25T00:11:45.596Z,101324.78
2024-01-25T00:14:12.292Z,101325.63
2024-01-25T00:16:43.109Z,101340.53
2024-01-25T00:19:09.819Z,101325.19
2024-01-25T00:21:37.569Z,101334.31
2024-01-25T00:24:05.170Z,101348.06
2024-01-25T00:26:31.701Z,101344.91
2024-01-25T00:28:58.295Z,101319.75
2024-01-25T00:31:25.244Z,101340.34
2024-01-25T00:33:51.971Z,101343.78
2024-01-25T00:36:19.665Z,101341.81
2024-01-25T00:38:46.742Z,101348.06
2024-01-25T00:41:18.311Z,101341.81
2024-01-25T00:43:45.140Z,101354.94
2024-01-25T00:46:12.000Z,101360.03
2024-01-25T00:48:39.158Z,101365.47
2024-01-25T00:51:08.845Z,101366.44
2024-01-25T00:53:35.918Z,101351.66
2024-01-25T00:56:02.762Z,101350.75
2024-01-25T00:58:29.759Z,101343.56
2024-01-25T01:00:56.750Z,101367.34
2024-01-25T01:03:23.647Z,101346.56
2024-01-25T01:05:50.658Z,101349.97
2024-01-25T01:08:17.808Z,101368.78
2024-01-25T01:10:45.119Z,101382.56
2024-01-25T01:13:11.669Z,101394.72
2024-01-25T01:15:38.163Z,101397.97
2024-01-25T01:18:09.369Z,101405.25
2024-01-25T01:20:36.066Z,101399.31
2024-01-25T01:23:02.837Z,101388.41
2024-01-25T01:25:29.460Z,101399.31
2024-01-25T01:27:56.014Z,101402.13
2024-01-25T01:30:23.017Z,101397.69
2024-01-25T01:32:51.745Z,101400.84
2024-01-25T01:35:18.474Z,101412.16
2024-01-25T01:37:45.294Z,101422.69
2024-01-25T01:40:12.185Z,101413.31
2024-01-25T01:42:38.877Z,101403.63
2024-01-25T01:45:05.913Z,101406.63
2024-01-25T01:47:32.577Z,101421.56
2024-01-25T01:49:59.667Z,101426.00
2024-01-25T01:52:26.739Z,101426.81
2024-01-25T01:54:53.520Z,101396.38
2024-01-25T01:57:20.295Z,101427.78
2024-01-25T01:59:47.099Z,101422.38
2024-01-25T02:02:13.761Z,101426.97
2024-01-25T02:04:40.530Z,101401.81
2024-01-25T02:07:08.592Z,101429.78
2024-01-25T02:09:36.149Z,101420.91
2024-01-25T02:12:03.543Z,101409.94
2024-01-25T02:14:31.350Z,101411.28
2024-01-25T02:16:57.963Z,101421.25
2024-01-25T02:19:24.661Z,101408.03
2024-01-25T02:21:55.152Z,101409.69
2024-01-25T02:24:21.804Z,101434.91
2024-01-25T02:26:48.608Z,101447.88
2024-01-25T02:29:15.349Z,101429.88
2024-01-25T02:31:44.313Z,101446.03
2024-01-25T02:34:10.952Z,101390.41
2024-01-25T02:36:37.672Z,101434.91
2024-01-25T02:39:05.739Z,101426.03
2024-01-25T02:41:33.340Z,101424.25
2024-01-25T02:44:01.510Z,101426.38
2024-01-25T02:46:28.077Z,101423.13
2024-01-25T02:48:54.790Z,101402.75
2024-01-25T02:51:21.436Z,101421.47
2024-01-25T02:53:47.955Z,101416.22
2024-01-25T02:56:14.866Z,101405.72
2024-01-25T02:58:41.471Z,101419.38
2024-01-25T03:01:08.132Z,101404.75
2024-01-25T03:03:34.823Z,101422.50
2024-01-25T03:06:01.660Z,101400.03
2024-01-25T03:08:28.403Z,101420.88
2024-01-25T03:10:54.930Z,101422.50
2024-01-25T03:13:21.546Z,101420.88
2024-01-25T03:15:48.206Z,101404.22
2024-01-25T03:18:14.856Z,101397.81
2024-01-25T03:20:41.443Z,101422.53
2024-01-25T03:23:08.100Z,101425.97
2024-01-25T03:25:34.611Z,101425.31
2024-01-25T03:28:01.284Z,101429.78
2024-01-25T03:30:27.832Z,101447.16
2024-01-25T03:32:54.431Z,101434.38
2024-01-25T03:35:20.973Z,101435.03
2024-01-25T03:37:47.577Z,101448.78
2024-01-25T03:40:14.224Z,101445.53
2024-01-25T03:42:41.083Z,101461.28
2024-01-25T03:45:08.510Z,101456.19
2024-01-25T03:47:35.095Z,101430.16
2024-01-25T03:50:01.826Z,101461.44
2024-01-25T03:52:31.375Z,101465.41
2024-01-25T03:54:58.105Z,101476.38
2024-01-25T03:57:24.883Z,101488.03
2024-01-25T03:59:51.373Z,101479.16
2024-01-25T04:02:18.311Z,101470.66
2024-01-25T04:04:45.258Z,101459.34
2024-01-25T04:07:11.880Z,101458.50
2024-01-25T04:09:38.496Z,101438.22
2024-01-25T04:12:05.489Z,101456.22
2024-01-25T04:14:31.992Z,101470.34
2024-01-25T04:16:58.440Z,101456.41
2024-01-25T04:19:25.590Z,101460.00
2024-01-25T04:21:52.308Z,101447.56
2024-01-25T04:24:19.240Z,101464.63
2024-01-25T04:26:45.712Z,101435.66
2024-01-25T04:29:12.208Z,101456.44
2024-01-25T04:31:45.244Z,101439.75
2024-01-25T04:34:14.112Z,101464.16
2024-01-25T04:36:40.710Z,101480.56
2024-01-25T04:39:07.504Z,101500.06
2024-01-25T04:41:34.111Z,101476.16
2024-01-25T04:44:00.735Z,101499.09
2024-01-25T04:46:27.840Z,101503.69
2024-01-25T04:48:54.458Z,101508.63
2024-01-25T04:51:21.380Z,101524.19
2024-01-25T04:53:48.236Z,101516.13
2024-01-25T04:56:15.165Z,101509.56
2024-01-25T04:58:41.806Z,101504.97
2024-01-25T05:01:08.578Z,101525.16
2024-01-25T05:03:35.637Z,101537.66
2024-01-25T05:06:02.341Z,101540.91
2024-01-25T05:08:29.003Z,101541.06
2024-01-25T05:10:55.614Z,101535.03
2024-01-25T05:13:22.182Z,101544.69
2024-01-25T05:15:48.985Z,101530.75
2024-01-25T05:18:15.620Z,101519.44
2024-01-25T05:20:42.230Z,101548.59
2024-01-25T05:23:11.044Z,101544.38
2024-01-25T05:25:37.602Z,101535.50
2024-01-25T05:28:04.615Z,101540.75
2024-01-25T05:30:31.892Z,101561.56
2024-01-25T05:32:58.443Z,101575.19
2024-01-25T05:35:25.461Z,101574.69
2024-01-25T05:37:54.193Z,101549.75
2024-01-25T05:40:21.282Z,101578.16
2024-01-25T05:42:47.977Z,101575.88
2024-01-25T05:45:14.574Z,101578.16
2024-01-25T05:47:41.390Z,101574.19
2024-01-25T05:50:08.530Z,101590.44
2024-01-25T05:52:40.281Z,101599.47
2024-01-25T05:55:07.549Z,101614.53
2024-01-25T05:57:36.668Z,101599.63
2024-01-25T06:00:04.538Z,101599.78
2024-01-25T06:02:31.146Z,101632.13
2024-01-25T06:04:59.658Z,101641.47
2024-01-25T06:07:27.780Z,101636.88
2024-01-25T06:09:54.673Z,101631.78
2024-01-25T06:12:21.466Z,101624.06
2024-01-25T06:14:48.277Z,101630.13
2024-01-25T06:17:14.846Z,101618.81
2024-01-25T06:19:41.555Z,101619.00
2024-01-25T06:22:08.243Z,101609.13
2024-01-25T06:24:34.876Z,101637.53
2024-01-25T06:27:01.461Z,101618.50
2024-01-25T06:29:27.990Z,101608.00
2024-01-25T06:31:54.597Z,101630.97
2024-01-25T06:34:21.519Z,101634.75
2024-01-25T06:36:48.176Z,101645.41
2024-01-25T06:39:14.739Z,101626.19
2024-01-25T06:41:41.370Z,101647.34
2024-01-25T06:44:07.985Z,101640.47
2024-01-25T06:46:34.558Z,101654.25
2024-01-25T06:49:01.492Z,101660.16
2024-01-25T06:51:29.150Z,101660.31
2024-01-25T06:53:55.611Z,101665.72
2024-01-25T06:56:22.146Z,101653.59
2024-01-25T06:58:48.628Z,101679.00
2024-01-25T07:01:22.216Z,101670.66
2024-01-25T07:03:54.005Z,101665.41
2024-01-25T07:06:21.179Z,101668.03
2024-01-25T07:08:47.727Z,101669.16
2024-01-25T07:11:14.473Z,101680.28
2024-01-25T07:13:44.741Z,101672.25
2024-01-25T07:16:11.668Z,101678.81
2024-01-25T07:18:38.590Z,101683.09
2024-01-25T07:21:06.228Z,101685.03
2024-01-25T07:23:34.653Z,101701.13
2024-01-25T07:26:01.381Z,101710.97
2024-01-25T07:28:28.237Z,101702.44
2024-01-25T07:30:54.926Z,101726.03
2024-01-25T07:33:21.641Z,101725.88
2024-01-25T07:35:49.285Z,101727.22
2024-01-25T07:38:16.746Z,101735.22
2024-01-25T07:40:43.887Z,101722.94
2024-01-25T07:43:10.482Z,101744.47
2024-01-25T07:45:37.368Z,101744.94
2024-01-25T07:48:12.081Z,101752.00
2024-01-25T07:50:42.048Z,101761.19
2024-01-25T07:53:08.848Z,101761.84
2024-01-25T07:55:35.466Z,101746.41
2024-01-25T07:58:02.109Z,101765.63
2024-01-25T08:00:28.779Z,101779.59
2024-01-25T08:02:55.386Z,101779.44
2024-01-25T08:05:21.987Z,101783.03
2024-01-25T08:07:49.903Z,101783.56
2024-01-25T08:10:17.608Z,101784.88
2024-01-25T08:12:48.349Z,101768.59
2024-01-25T08:15:19.099Z,101795.53
2024-01-25T08:17:45.772Z,101797.34
2024-01-25T08:20:14.699Z,101803.56
2024-01-25T08:22:44.472Z,101778.97
2024-01-25T08:25:12.650Z,101788.63
2024-01-25T08:27:39.363Z,101818.38
2024-01-25T08:30:06.851Z,101813.78
2024-01-25T08:32:33.698Z,101821.38
2024-01-25T08:35:01.123Z,101816.09
2024-01-25T08:37:27.872Z,101817.75
2024-01-25T08:39:54.682Z,101823.31
2024-01-25T08:42:21.961Z,101813.94
2024-01-25T08:44:51.381Z,101826.59
2024-01-25T08:47:19.421Z,101825.97
2024-01-25T08:49:46.087Z,101836.31
2024-01-25T08:52:12.710Z,101831.84
2024-01-25T08:54:39.686Z,101824.44
2024-01-25T08:57:06.635Z,101836.13
2024-01-25T08:59:36.345Z,101819.72
2024-01-25T09:02:03.488Z,101850.75
2024-01-25T09:04:30.354Z,101833.16
2024-01-25T09:06:57.117Z,101859.13
2024-01-25T09:09:24.390Z,101853.19
2024-01-25T09:11:51.230Z,101868.66
2024-01-25T09:14:17.786Z,101861.41
2024-01-25T09:16:44.390Z,101880.81
2024-01-25T09:19:13.215Z,101882.91
2024-01-25T09:21:41.027Z,101878.19
2024-01-25T09:24:08.517Z,101883.78
2024-01-25T09:26:34.978Z,101895.59
2024-01-25T09:29:01.569Z,101890.84
2024-01-25T09:31:28.179Z,101868.97
2024-01-25T09:33:55.082Z,101901.38
2024-01-25T09:36:22.052Z,101907.94
2024-01-25T09:38:48.696Z,101911.88
2024-01-25T09:41:15.373Z,101895.09
2024-01-25T09:43:41.934Z,101922.25
2024-01-25T09:46:13.910Z,101918.78
2024-01-25T09:48:41.649Z,101914.03
2024-01-25T09:51:08.928Z,101920.25
2024-01-25T09:53:36.625Z,101929.31
2024-01-25T09:56:08.535Z,101931.16
2024-01-25T09:58:47.979Z,101931.16
2024-01-25T10:01:16.783Z,101932.47
2024-01-25T10:03:45.133Z,101944.47
2024-01-25T10:06:12.473Z,101938.41
2024-01-25T10:08:39.228Z,101917.38
2024-01-25T10:11:06.681Z,101933.41
2024-01-25T10:13:33.384Z,101945.31
2024-01-25T10:16:00.461Z,101920.31
2024-01-25T10:18:30.003Z,101953.84
2024-01-25T10:20:58.208Z,101956.47
2024-01-25T10:23:26.861Z,101951.34
2024-01-25T10:25:53.978Z,101948.41
2024-01-25T10:28:20.684Z,101941.38
2024-01-25T10:30:48.388Z,101963.03
2024-01-25T10:33:16.641Z,101958.75
2024-01-25T10:35:46.605Z,101950.41
2024-01-25T10:38:14.457Z,101951.72
2024-01-25T10:40:45.524Z,101961.06
2024-01-25T10:43:15.577Z,101957.91
2024-01-25T10:45:42.944Z,101943.16
2024-01-25T10:48:09.794Z,101948.91
2024-01-25T10:50:36.734Z,101951.06
2024-01-25T10:53:04.338Z,101959.03
2024-01-25T10:55:31.363Z,101958.94
2024-01-25T10:57:58.188Z,101952.06
2024-01-25T11:00:24.867Z,101963.97
2024-01-25T11:02:53.053Z,101973.53
2024-01-25T11:05:23.034Z,101972.03
2024-01-25T11:07:51.797Z,101960.69
2024-01-25T11:10:21.399Z,101981.06
2024-01-25T11:12:58.325Z,101975.66
2024-01-25T11:15:33.509Z,101980.13
2024-01-25T11:18:02.221Z,101954.06
2024-01-25T11:20:31.125Z,101973.84
2024-01-25T11:23:03.973Z,101985.72
2024-01-25T11:25:31.959Z,101977.66
2024-01-25T11:27:59.532Z,101991.31
2024-01-25T11:30:35.892Z,101991.66
2024-01-25T11:33:06.917Z,101991.69
2024-01-25T11:35:33.922Z,101956.81
2024-01-25T11:38:01.395Z,101973.06
2024-01-25T11:40:29.753Z,101971.59
2024-01-25T11:42:56.713Z,101980.47
2024-01-25T11:45:26.016Z,101977.25
2024-01-25T11:47:52.951Z,101944.63
2024-01-25T11:50:19.663Z,101944.22
2024-01-25T11:52:46.441Z,101944.56
2024-01-25T11:55:13.116Z,101970.22
2024-01-25T11:57:44.573Z,101966.31
2024-01-25T12:00:15.706Z,101966.94
2024-01-25T12:02:43.143Z,101968.31
2024-01-25T12:05:11.739Z,101965.94
2024-01-25T12:07:40.670Z,101991.16
2024-01-25T12:10:10.001Z,101989.59
2024-01-25T12:12:38.115Z,101970.88
2024-01-25T12:15:08.787Z,101996.47
2024-01-25T12:17:37.724Z,101989.91
2024-01-25T12:20:04.938Z,101991.72
2024-01-25T12:22:33.870Z,101978.97
2024-01-25T12:25:03.088Z,101968.53
2024-01-25T12:27:31.882Z,101993.28
2024-01-25T12:29:58.566Z,101983.84
2024-01-25T12:32:25.088Z,101992.97
2024-01-25T12:34:59.437Z,101975.75
2024-01-25T12:37:26.063Z,101977.31
2024-01-25T12:39:53.896Z,101981.34
2024-01-25T12:42:21.437Z,101982.91
2024-01-25T12:44:48.446Z,101980.88
2024-01-25T12:47:15.592Z,101984.09
2024-01-25T12:49:46.149Z,101964.91
2024-01-25T12:52:14.760Z,101982.19
2024-01-25T12:54:41.777Z,101987.53
2024-01-25T12:57:08.998Z,101983.91
2024-01-25T12:59:36.855Z,101986.69
2024-01-25T13:02:03.709Z,101994.34
2024-01-25T13:04:30.420Z,101991.88
2024-01-25T13:06:57.719Z,101998.59
2024-01-25T13:09:25.581Z,101975.47
2024-01-25T13:11:55.091Z,101985.66
2024-01-25T13:14:21.668Z,102001.09
2024-01-25T13:16:48.318Z,101983.41
2024-01-25T13:19:14.913Z,101994.34
2024-01-25T13:21:42.320Z,101997.56
2024-01-25T13:24:09.035Z,101975.72
2024-01-25T13:26:37.261Z,101974.16
2024-01-25T13:29:04.007Z,101996.47
2024-01-25T13:31:30.589Z,101998.34
2024-01-25T13:33:57.297Z,101986.16
2024-01-25T13:36:23.954Z,101983.00
2024-01-25T13:38:50.685Z,101984.19
2024-01-25T13:41:17.228Z,101986.38
2024-01-25T13:43:43.801Z,101982.44
2024-01-25T13:46:10.591Z,101990.31
2024-01-25T13:48:37.333Z,101974.88
2024-01-25T13:51:04.113Z,101983.75
2024-01-25T13:53:30.646Z,101979.78
2024-01-25T13:55:57.206Z,101992.41
2024-01-25T13:58:23.778Z,102008.88
2024-01-25T14:00:50.374Z,101981.00
2024-01-25T14:03:18.124Z,102004.97
2024-01-25T14:05:44.868Z,102021.25
2024-01-25T14:08:12.033Z,102025.41
2024-01-25T14:10:38.912Z,102027.66
2024-01-25T14:13:05.767Z,102027.50
2024-01-25T14:15:32.763Z,102033.78
2024-01-25T14:17:59.568Z,102035.59
2024-01-25T14:20:26.326Z,102035.25
2024-01-25T14:22:53.178Z,102023.38
2024-01-25T14:25:21.989Z,102018.78
2024-01-25T14:27:50.102Z,102034.91
2024-01-25T14:30:17.425Z,102036.06
2024-01-25T14:32:44.187Z,102030.31
2024-01-25T14:35:10.924Z,102033.25
2024-01-25T14:37:37.750Z,102019.75
2024-01-25T14:40:18.830Z,102035.22
2024-01-25T14:42:51.831Z,102017.56
2024-01-25T14:45:18.639Z,102048.69
2024-01-25T14:47:45.260Z,102053.47
2024-01-25T14:50:11.907Z,102047.78
2024-01-25T14:52:38.647Z,102051.41
2024-01-25T14:55:06.092Z,102021.19
2024-01-25T14:57:32.869Z,102064.94
2024-01-25T14:59:59.970Z,102044.28
2024-01-25T15:02:26.578Z,102064.72
2024-01-25T15:04:53.368Z,102060.94
2024-01-25T15:07:22.877Z,102039.00
2024-01-25T15:09:49.926Z,102050.00
2024-01-25T15:12:16.983Z,102068.13
2024-01-25T15:14:43.589Z,102069.09
2024-01-25T15:17:10.232Z,102078.50
2024-01-25T15:19:38.510Z,102065.75
2024-01-25T15:22:06.002Z,102074.94
2024-01-25T15:24:33.569Z,102073.78
2024-01-25T15:27:01.593Z,102071.22
2024-01-25T15:29:28.604Z,102093.00
2024-01-25T15:31:55.188Z,102084.28
2024-01-25T15:34:21.931Z,102069.63
2024-01-25T15:36:48.624Z,102092.94
2024-01-25T15:39:15.681Z,102111.03
2024-01-25T15:41:43.420Z,102101.53
2024-01-25T15:44:10.013Z,102092.22
2024-01-25T15:46:36.488Z,102099.78
2024-01-25T15:49:03.478Z,102109.03
2024-01-25T15:51:30.195Z,102115.38
2024-01-25T15:53:56.927Z,102110.47
2024-01-25T15:56:24.112Z,102112.72
2024-01-25T15:58:50.722Z,102078.25
2024-01-25T16:01:17.827Z,102114.81
2024-01-25T16:03:44.851Z,102117.06
2024-01-25T16:06:11.850Z,102105.84
2024-01-25T16:08:38.935Z,102125.31
2024-01-25T16:11:07.531Z,102101.38
2024-01-25T16:13:34.261Z,102131.50
2024-01-25T16:16:01.202Z,102127.44
2024-01-25T16:18:28.052Z,102128.59
2024-01-25T16:20:55.508Z,102140.34
2024-01-25T16:23:22.061Z,102144.94
2024-01-25T16:25:48.687Z,102148.22
2024-01-25T16:28:15.439Z,102153.94
2024-01-25T16:30:43.109Z,102153.94
2024-01-25T16:33:09.677Z,102152.56
2024-01-25T16:35:36.332Z,102154.34
2024-01-25T16:38:03.183Z,102159.38
2024-01-25T16:40:29.752Z,102173.31
2024-01-25T16:42:56.385Z,102173.31
2024-01-25T16:45:23.166Z,102171.34
2024-01-25T16:47:49.744Z,102159.06
2024-01-25T16:50:16.508Z,102168.31
2024-01-25T16:52:43.264Z,102172.50
2024-01-25T16:55:10.025Z,102165.44
2024-01-25T16:57:36.635Z,102153.06
2024-01-25T17:00:03.510Z,102168.53
2024-01-25T17:02:30.009Z,102168.22
2024-01-25T17:04:57.017Z,102169.50
2024-01-25T17:07:23.744Z,102167.34
2024-01-25T17:09:50.591Z,102169.97
2024-01-25T17:12:18.506Z,102163.38
2024-01-25T17:14:45.141Z,102163.19
2024-01-25T17:17:14.429Z,102171.38
2024-01-25T17:19:41.421Z,102170.56
2024-01-25T17:22:08.026Z,102169.47
2024-01-25T17:24:34.872Z,102163.41
2024-01-25T17:27:01.361Z,102167.41
2024-01-25T17:29:27.858Z,102178.75
2024-01-25T17:31:54.594Z,102170.31
2024-01-25T17:34:21.299Z,102177.44
2024-01-25T17:36:50.128Z,102178.94
2024-01-25T17:39:16.728Z,102186.66
2024-01-25T17:41:43.270Z,102183.16
2024-01-25T17:44:09.849Z,102186.81
2024-01-25T17:46:36.401Z,102189.34
2024-01-25T17:49:03.053Z,102198.88
2024-01-25T17:51:29.630Z,102189.94
2024-01-25T17:53:56.168Z,102203.34
2024-01-25T17:56:22.696Z,102182.03
2024-01-25T17:58:49.220Z,102210.91
2024-01-25T18:01:15.823Z,102208.47
2024-01-25T18:03:42.469Z,102214.81
2024-01-25T18:06:09.718Z,102212.63
2024-01-25T18:08:36.423Z,102209.31
2024-01-25T18:11:03.248Z,102222.59
2024-01-25T18:13:29.781Z,102210.75
2024-01-25T18:15:56.580Z,102209.38
2024-01-25T18:18:23.180Z,102209.91
2024-01-25T18:20:49.669Z,102215.59
2024-01-25T18:23:16.166Z,102214.78
2024-01-25T18:25:42.877Z,102211.41
2024-01-25T18:28:09.674Z,102204.16
2024-01-25T18:30:36.427Z,102205.81
2024-01-25T18:33:03.194Z,102188.53
2024-01-25T18:35:29.875Z,102219.50
2024-01-25T18:37:56.473Z,102228.19
2024-01-25T18:40:22.951Z,102225.19
2024-01-25T18:42:52.282Z,102228.38
2024-01-25T18:45:19.779Z,102225.75
2024-01-25T18:47:46.493Z,102232.78
2024-01-25T18:50:13.279Z,102220.81
2024-01-25T18:52:39.862Z,102222.75
2024-01-25T18:55:07.205Z,102234.88
2024-01-25T18:57:35.486Z,102235.72
2024-01-25T19:00:02.643Z,102239.59
2024-01-25T19:02:29.544Z,102245.41
2024-01-25T19:04:56.543Z,102232.88
2024-01-25T19:07:23.806Z,102231.91
2024-01-25T19:09:50.786Z,102231.22
2024-01-25T19:12:17.601Z,102226.41
2024-01-25T19:14:44.205Z,102213.59
2024-01-25T19:17:10.748Z,102207.41
2024-01-25T19:19:39.170Z,102221.75
2024-01-25T19:22:06.221Z,102245.31
2024-01-25T19:24:32.955Z,102250.44
2024-01-25T19:26:59.523Z,102240.34
2024-01-25T19:29:26.203Z,102245.97
2024-01-25T19:31:52.715Z,102242.97
2024-01-25T19:34:21.795Z,102236.63
2024-01-25T19:36:49.339Z,102236.91
2024-01-25T19:39:19.293Z,102244.19
2024-01-25T19:41:47.227Z,102245.44
2024-01-25T19:44:16.718Z,102234.56
2024-01-25T19:46:43.731Z,102239.13
2024-01-25T19:49:10.353Z,102236.78
2024-01-25T19:51:37.261Z,102231.81
2024-01-25T19:54:04.466Z,102236.06
2024-01-25T19:56:31.072Z,102236.91
2024-01-25T19:58:58.328Z,102248.09
2024-01-25T20:01:25.584Z,102245.47
2024-01-25T20:03:52.618Z,102242.97
2024-01-25T20:06:21.542Z,102231.38
2024-01-25T20:08:49.433Z,102244.91
2024-01-25T20:11:16.047Z,102244.34
2024-01-25T20:13:42.687Z,102243.38
2024-01-25T20:16:09.633Z,102247.78
2024-01-25T20:18:36.961Z,102248.34
2024-01-25T20:21:03.968Z,102244.91
2024-01-25T20:23:30.802Z,102247.13
2024-01-25T20:26:11.102Z,102224.25
2024-01-25T20:28:37.633Z,102232.78
2024-01-25T20:31:04.475Z,102245.19
2024-01-25T20:33:31.297Z,102243.94
2024-01-25T20:35:57.885Z,102242.16
2024-01-25T20:38:25.281Z,102246.00
2024-01-25T20:40:51.772Z,102244.06
2024-01-25T20:43:18.335Z,102241.31
2024-01-25T20:45:45.120Z,102241.31
2024-01-25T20:48:13.224Z,102230.72
2024-01-25T20:50:39.890Z,102234.97
2024-01-25T20:53:09.544Z,102256.19
2024-01-25T20:55:38.429Z,102221.19
2024-01-25T20:58:05.107Z,102239.66
2024-01-25T21:00:33.221Z,102222.00
2024-01-25T21:03:00.155Z,102220.38
2024-01-25T21:05:27.362Z,102245.41
2024-01-25T21:07:54.324Z,102243.50
2024-01-25T21:10:22.000Z,102252.72
2024-01-25T21:12:48.996Z,102252.72
2024-01-25T21:15:15.973Z,102253.69
2024-01-25T21:17:42.595Z,102256.47
2024-01-25T21:20:12.979Z,102262.91
2024-01-25T21:22:39.550Z,102246.34
2024-01-25T21:25:08.408Z,102248.72
2024-01-25T21:27:37.236Z,102262.31
2024-01-25T21:30:04.253Z,102255.28
2024-01-25T21:32:31.137Z,102241.38
2024-01-25T21:34:57.781Z,102247.97
2024-01-25T21:37:25.539Z,102257.00
2024-01-25T21:39:52.262Z,102249.56
2024-01-25T21:42:19.456Z,102258.09
2024-01-25T21:44:46.845Z,102208.44
2024-01-25T21:47:13.646Z,102255.72
2024-01-25T21:49:41.132Z,102255.16
2024-01-25T21:52:08.166Z,102252.38
2024-01-25T21:54:35.088Z,102245.75
2024-01-25T21:57:02.055Z,102224.63
2024-01-25T21:59:29.175Z,102223.69
2024-01-25T22:01:56.137Z,102219.66
2024-01-25T22:04:24.260Z,102239.41
2024-01-25T22:06:51.492Z,102240.22
2024-01-25T22:09:19.207Z,102237.56
2024-01-25T22:11:45.911Z,102233.41
2024-01-25T22:14:12.737Z,102215.09
2024-01-25T22:16:39.314Z,102226.81
2024-01-25T22:19:06.451Z,102209.94
2024-01-25T22:21:36.264Z,102235.47
2024-01-25T22:24:03.989Z,102222.28
2024-01-25T22:26:30.594Z,102238.59
2024-01-25T22:28:57.453Z,102239.31
2024-01-25T22:31:23.988Z,102242.28
2024-01-25T22:33:50.948Z,102239.00
2024-01-25T22:36:17.972Z,102234.84
2024-01-25T22:38:44.518Z,102222.38
2024-01-25T22:41:13.144Z,102238.66
2024-01-25T22:43:39.916Z,102213.72
2024-01-25T22:46:06.462Z,102237.16
2024-01-25T22:48:33.144Z,102240.50
2024-01-25T22:51:04.042Z,102236.78
2024-01-25T22:53:31.334Z,102236.06
2024-01-25T22:55:58.250Z,102233.94
2024-01-25T22:58:24.861Z,102241.09
2024-01-25T23:00:51.844Z,102206.06
2024-01-25T23:03:20.331Z,102236.81
2024-01-25T23:05:47.054Z,102231.38
2024-01-25T23:08:13.696Z,102242.81
2024-01-25T23:10:41.022Z,102234.53
2024-01-25T23:13:08.546Z,102246.59
2024-01-25T23:15:35.904Z,102241.91
2024-01-25T23:18:02.841Z,102244.19
2024-01-25T23:20:30.384Z,102236.34
2024-01-25T23:22:57.406Z,102244.75
2024-01-25T23:25:23.973Z,102242.13
2024-01-25T23:27:50.819Z,102237.28
2024-01-25T23:30:17.606Z,102238.59
2024-01-25T23:32:44.518Z,102239.66
2024-01-25T23:35:11.201Z,102214.13
2024-01-25T23:37:37.718Z,102234.72
2024-01-25T23:40:07.976Z,102212.75
2024-01-25T23:42:35.203Z,102245.78
2024-01-25T23:45:02.097Z,102236.41
2024-01-25T23:47:29.816Z,102242.59
2024-01-25T23:49:56.916Z,102238.94
2024-01-25T23:52:23.526Z,102218.59
2024-01-25T23:54:50.767Z,102241.81
2024-01-25T23:57:18.511Z,102235.63
2024-01-25T23:59:45.401Z,102248.91
